Time;durP1;ratioP1;P1;durP2;ratioP2;P2;SDS_P1;SDS_P2;PMS_P1;PMS_P2;Temp;Humidity;BMP_temperature;BMP_pressure;BME280_temperature;BME280_humidity;BME280_pressure;Samples;Min_cycle;Max_cycle;Signal;HPM_P1;HPM_P2
2022/05/16 00:02:12;;;;;;;0.00;0.00;;;;;;;;;;5038701;28;20051;-83
2022/05/16 00:04:44;;;;;;;0.03;0.03;;;;;;;;;;5055197;28;20036;-83
2022/05/16 00:07:10;;;;;;;0.10;0.10;;;;;;;;;;5054769;28;20467;-83
2022/05/16 00:09:38;;;;;;;0.10;0.10;;;;;;;;;;5038659;28;20086;-83
2022/05/16 00:12:04;;;;;;;0.10;0.10;;;;;;;;;;5021979;28;20123;-83
2022/05/16 00:14:30;;;;;;;0.10;0.10;;;;;;;;;;5038374;28;20679;-82
2022/05/16 00:16:56;;;;;;;0.00;0.00;;;;;;;;;;5054893;28;20075;-82
2022/05/16 00:19:22;;;;;;;0.10;0.10;;;;;;;;;;5038503;28;20524;-82
2022/05/16 00:21:48;;;;;;;0.10;0.10;;;;;;;;;;5038302;28;20110;-83
2022/05/16 00:24:24;;;;;;;0.05;0.05;;;;;;;;;;5038740;28;20036;-84
2022/05/16 00:26:50;;;;;;;0.10;0.10;;;;;;;;;;5037947;28;20045;-82
2022/05/16 00:29:16;;;;;;;0.00;0.00;;;;;;;;;;5038633;28;20043;-82
2022/05/16 00:31:41;;;;;;;0.20;0.20;;;;;;;;;;5037924;28;20102;-82
2022/05/16 00:34:07;;;;;;;0.10;0.10;;;;;;;;;;5038300;28;20128;-83
2022/05/16 00:36:33;;;;;;;0.00;0.00;;;;;;;;;;5037973;28;20045;-82
2022/05/16 00:38:59;;;;;;;0.15;0.15;;;;;;;;;;5038679;28;20409;-83
2022/05/16 00:41:25;;;;;;;0.10;0.10;;;;;;;;;;5038350;28;20078;-82
2022/05/16 00:43:57;;;;;;;0.30;0.30;;;;;;;;;;5038093;28;20036;-84
2022/05/16 00:46:24;;;;;;;0.10;0.10;;;;;;;;;;5054702;28;20397;-83
2022/05/16 00:48:50;;;;;;;0.10;0.10;;;;;;;;;;5038446;28;20048;-83
2022/05/16 00:51:25;;;;;;;0.03;0.03;;;;;;;;;;5038284;28;20405;-83
2022/05/16 00:53:55;;;;;;;0.10;0.10;;;;;;;;;;5055169;28;20416;-83
2022/05/16 00:56:22;;;;;;;0.20;0.20;;;;;;;;;;5041059;28;20044;-83
2022/05/16 00:58:49;;;;;;;0.20;0.20;;;;;;;;;;5041717;28;20102;-83
2022/05/16 01:06:46;;;;;;;0.10;0.10;;;;;;;;;;5043850;28;20049;-83
2022/05/16 01:09:14;;;;;;;0.15;0.15;;;;;;;;;;5041431;28;20036;-83
2022/05/16 01:11:40;;;;;;;0.03;0.03;;;;;;;;;;5041280;28;20459;-82
2022/05/16 01:14:06;;;;;;;0.10;0.10;;;;;;;;;;5058328;28;20040;-81
2022/05/16 01:16:32;;;;;;;0.10;0.10;;;;;;;;;;5041084;28;20048;-82
2022/05/16 01:18:59;;;;;;;0.00;0.00;;;;;;;;;;5041406;28;20048;-81
2022/05/16 01:21:38;;;;;;;0.10;0.10;;;;;;;;;;5041331;28;20040;-82
2022/05/16 01:24:07;;;;;;;0.10;0.10;;;;;;;;;;5058053;28;20040;-82
2022/05/16 01:26:34;;;;;;;0.00;0.00;;;;;;;;;;5041192;28;20044;-83
2022/05/16 01:29:00;;;;;;;0.10;0.10;;;;;;;;;;5041572;28;20074;-83
2022/05/16 01:31:28;;;;;;;0.03;0.03;;;;;;;;;;5041253;28;20040;-82
2022/05/16 01:33:54;;;;;;;0.10;0.10;;;;;;;;;;5041281;28;20040;-82
2022/05/16 01:36:21;;;;;;;0.10;0.10;;;;;;;;;;5057447;28;20504;-83
2022/05/16 01:38:47;;;;;;;0.10;0.10;;;;;;;;;;5041358;28;20040;-83
2022/05/16 01:41:15;;;;;;;0.20;0.20;;;;;;;;;;5057703;28;20040;-83
2022/05/16 01:43:43;;;;;;;0.15;0.15;;;;;;;;;;5024694;28;20055;-83
2022/05/16 01:46:11;;;;;;;0.10;0.10;;;;;;;;;;5040928;28;20036;-82
2022/05/16 01:48:39;;;;;;;0.10;0.10;;;;;;;;;;5024777;28;20036;-82
2022/05/16 01:51:08;;;;;;;0.10;0.10;;;;;;;;;;5040853;28;20040;-82
2022/05/16 01:53:35;;;;;;;0.10;0.10;;;;;;;;;;5040808;28;20043;-82
2022/05/16 01:56:04;;;;;;;0.17;0.17;;;;;;;;;;5040779;28;20401;-83
2022/05/16 01:58:30;;;;;;;0.10;0.10;;;;;;;;;;5040400;28;20043;-82
2022/05/16 02:00:56;;;;;;;0.10;0.10;;;;;;;;;;5041090;28;20037;-83
2022/05/16 02:03:24;;;;;;;0.00;0.00;;;;;;;;;;5040983;28;20123;-82
2022/05/16 02:05:50;;;;;;;0.10;0.10;;;;;;;;;;5039658;28;20140;-83
2022/05/16 02:08:16;;;;;;;0.10;0.10;;;;;;;;;;5040692;28;20090;-83
2022/05/16 02:10:44;;;;;;;0.10;0.10;;;;;;;;;;5040624;28;20041;-80
2022/05/16 02:13:11;;;;;;;0.20;0.20;;;;;;;;;;5040387;28;20040;-83
2022/05/16 02:15:39;;;;;;;0.10;0.10;;;;;;;;;;5023674;28;20036;-82
2022/05/16 02:18:06;;;;;;;0.10;0.10;;;;;;;;;;5057209;28;20512;-82
2022/05/16 02:20:33;;;;;;;0.20;0.20;;;;;;;;;;5040410;28;20053;-82
2022/05/16 02:25:48;;;;;;;0.20;0.20;;;;;;;;;;5056515;28;20386;-83
2022/05/16 02:28:16;;;;;;;0.10;0.10;;;;;;;;;;5056974;28;20087;-83
2022/05/16 02:30:43;;;;;;;0.10;0.10;;;;;;;;;;5056496;28;20080;-83
2022/05/16 02:33:10;;;;;;;0.20;0.20;;;;;;;;;;5056956;28;20494;-82
2022/05/16 02:35:36;;;;;;;0.08;0.08;;;;;;;;;;5039741;28;20044;-83
2022/05/16 02:38:03;;;;;;;0.10;0.10;;;;;;;;;;5056463;28;20044;-83
2022/05/16 02:40:30;;;;;;;0.10;0.10;;;;;;;;;;5040260;28;20086;-83
2022/05/16 02:42:57;;;;;;;0.10;0.10;;;;;;;;;;5039911;28;20040;-82
2022/05/16 02:45:24;;;;;;;0.10;0.10;;;;;;;;;;5039502;28;20041;-83
2022/05/16 02:47:51;;;;;;;0.20;0.20;;;;;;;;;;5056672;28;20517;-82
2022/05/16 02:50:18;;;;;;;0.20;0.20;;;;;;;;;;5039917;28;20043;-82
2022/05/16 02:52:44;;;;;;;0.00;0.00;;;;;;;;;;5040039;28;20032;-83
2022/05/16 02:55:10;;;;;;;0.08;0.08;;;;;;;;;;5039879;28;20040;-82
2022/05/16 02:57:37;;;;;;;0.13;0.13;;;;;;;;;;5039714;28;20489;-83
2022/05/16 03:00:05;;;;;;;0.20;0.20;;;;;;;;;;5039735;28;20607;-80
2022/05/16 03:02:31;;;;;;;0.10;0.10;;;;;;;;;;5056129;28;20047;-82
2022/05/16 03:04:58;;;;;;;0.10;0.10;;;;;;;;;;5039436;28;20429;-83
2022/05/16 03:07:24;;;;;;;0.10;0.10;;;;;;;;;;5039406;28;20050;-82
2022/05/16 03:09:50;;;;;;;0.08;0.08;;;;;;;;;;5039393;28;20045;-83
2022/05/16 03:12:17;;;;;;;0.10;0.10;;;;;;;;;;5039631;28;20090;-83
2022/05/16 03:14:43;;;;;;;0.10;0.10;;;;;;;;;;5056186;28;20044;-82
2022/05/16 03:17:09;;;;;;;0.10;0.10;;;;;;;;;;5038384;28;20072;-82
2022/05/16 03:19:35;;;;;;;0.10;0.10;;;;;;;;;;5039373;28;20044;-82
2022/05/16 03:22:05;;;;;;;0.10;0.10;;;;;;;;;;5055863;28;20048;-82
2022/05/16 03:24:36;;;;;;;0.10;0.10;;;;;;;;;;5039134;28;20076;-82
2022/05/16 03:27:03;;;;;;;0.32;0.32;;;;;;;;;;5038731;28;20453;-82
2022/05/16 03:29:29;;;;;;;0.10;0.10;;;;;;;;;;5055653;28;20106;-84
2022/05/16 03:31:56;;;;;;;0.10;0.10;;;;;;;;;;5055805;28;20513;-83
2022/05/16 03:34:22;;;;;;;0.10;0.10;;;;;;;;;;5039227;28;20059;-83
2022/05/16 03:36:48;;;;;;;0.13;0.13;;;;;;;;;;5039042;28;20076;-83
2022/05/16 03:41:58;;;;;;;0.10;0.10;;;;;;;;;;5055418;28;20105;-82
2022/05/16 03:44:25;;;;;;;0.20;0.20;;;;;;;;;;5038835;28;20040;-84
2022/05/16 03:46:51;;;;;;;0.80;0.80;;;;;;;;;;5038429;28;20041;-82
2022/05/16 03:49:18;;;;;;;0.00;0.00;;;;;;;;;;5055654;28;20178;-82
2022/05/16 03:51:44;;;;;;;0.10;0.10;;;;;;;;;;5038895;28;20036;-82
2022/05/16 03:54:11;;;;;;;0.10;0.10;;;;;;;;;;5038723;28;20044;-82
2022/05/16 03:56:37;;;;;;;0.10;0.10;;;;;;;;;;5054931;28;20037;-83
2022/05/16 03:59:04;;;;;;;0.10;0.10;;;;;;;;;;5055457;28;20405;-83
2022/05/16 04:01:31;;;;;;;0.28;0.28;;;;;;;;;;5055044;28;20048;-82
2022/05/16 04:03:57;;;;;;;0.30;0.30;;;;;;;;;;5017569;28;20128;-82
2022/05/16 04:06:23;;;;;;;0.43;0.43;;;;;;;;;;5024157;28;20074;-83
2022/05/16 04:08:49;;;;;;;0.20;0.20;;;;;;;;;;5038195;28;20037;-82
2022/05/16 04:11:16;;;;;;;0.10;0.10;;;;;;;;;;5038711;28;20548;-82
2022/05/16 04:13:43;;;;;;;0.10;0.10;;;;;;;;;;5037770;28;20040;-84
2022/05/16 04:16:10;;;;;;;0.13;0.13;;;;;;;;;;5037707;28;20042;-82
2022/05/16 04:18:36;;;;;;;0.10;0.10;;;;;;;;;;5038314;28;20086;-83
2022/05/16 04:21:03;;;;;;;0.10;0.10;;;;;;;;;;5054442;28;20048;-82
2022/05/16 04:23:30;;;;;;;0.10;0.10;;;;;;;;;;5037995;28;20074;-83
2022/05/16 04:25:56;;;;;;;0.10;0.10;;;;;;;;;;5037569;28;20043;-82
2022/05/16 04:28:22;;;;;;;0.00;0.00;;;;;;;;;;5038401;28;20036;-83
2022/05/16 04:30:48;;;;;;;0.10;0.10;;;;;;;;;;5058428;28;20039;-82
2022/05/16 04:33:15;;;;;;;0.08;0.08;;;;;;;;;;5058530;28;20130;-83
2022/05/16 04:35:41;;;;;;;0.03;0.03;;;;;;;;;;5041846;28;20040;-83
2022/05/16 04:38:08;;;;;;;0.10;0.10;;;;;;;;;;5041849;28;20071;-83
2022/05/16 04:40:34;;;;;;;0.17;0.17;;;;;;;;;;5042197;28;20052;-83
2022/05/16 04:43:00;;;;;;;0.00;0.00;;;;;;;;;;5041461;28;20047;-83
2022/05/16 04:45:30;;;;;;;0.10;0.10;;;;;;;;;;5076178;28;20033;-83
2022/05/16 04:48:06;;;;;;;0.20;0.20;;;;;;;;;;5059096;28;20036;-83
2022/05/16 04:50:33;;;;;;;0.10;0.10;;;;;;;;;;5041875;28;20127;-82
2022/05/16 04:53:02;;;;;;;0.10;0.10;;;;;;;;;;5041941;28;20444;-83
2022/05/16 04:55:29;;;;;;;0.10;0.10;;;;;;;;;;5041209;28;20058;-82
2022/05/16 04:57:57;;;;;;;0.10;0.10;;;;;;;;;;5041387;28;20436;-80
2022/05/16 05:00:24;;;;;;;0.10;0.10;;;;;;;;;;5041465;28;20044;-83
2022/05/16 05:02:51;;;;;;;0.10;0.10;;;;;;;;;;5041303;28;20053;-82
2022/05/16 05:05:17;;;;;;;0.03;0.03;;;;;;;;;;5041433;28;20036;-83
2022/05/16 05:07:44;;;;;;;16.90;1.95;;;;;;;;;;5040283;28;20048;-83
2022/05/16 05:15:40;;;;;;;0.30;0.30;;;;;;;;;;5057071;28;20044;-82
2022/05/16 05:18:07;;;;;;;0.10;0.10;;;;;;;;;;5041096;28;20041;-82
2022/05/16 05:20:33;;;;;;;0.20;0.20;;;;;;;;;;5036988;28;20112;-82
2022/05/16 05:23:00;;;;;;;0.10;0.10;;;;;;;;;;5041358;28;20044;-82
2022/05/16 05:25:26;;;;;;;0.10;0.10;;;;;;;;;;5041544;28;20048;-82
2022/05/16 05:27:53;;;;;;;0.10;0.10;;;;;;;;;;5040946;28;20409;-83
2022/05/16 05:30:21;;;;;;;0.00;0.00;;;;;;;;;;5040403;28;20033;-83
2022/05/16 05:32:58;;;;;;;0.10;0.10;;;;;;;;;;5032079;28;20095;-82
2022/05/16 05:35:24;;;;;;;0.13;0.13;;;;;;;;;;5040461;28;20047;-83
2022/05/16 05:37:51;;;;;;;1.45;1.35;;;;;;;;;;5040819;28;20040;-83
2022/05/16 05:40:17;;;;;;;0.10;0.10;;;;;;;;;;5019879;28;20074;-82
2022/05/16 05:42:43;;;;;;;0.10;0.10;;;;;;;;;;5038099;28;20494;-81
2022/05/16 05:45:10;;;;;;;0.15;0.15;;;;;;;;;;5057018;28;20044;-82
2022/05/16 05:47:36;;;;;;;0.10;0.10;;;;;;;;;;5040239;28;20037;-83
2022/05/16 05:50:02;;;;;;;0.10;0.10;;;;;;;;;;5040223;28;20043;-83
2022/05/16 05:52:28;;;;;;;0.10;0.10;;;;;;;;;;5040117;28;20070;-83
2022/05/16 05:54:55;;;;;;;0.15;0.15;;;;;;;;;;5040220;28;20432;-83
2022/05/16 05:57:22;;;;;;;0.35;0.35;;;;;;;;;;5039850;28;20043;-83
2022/05/16 05:59:48;;;;;;;0.57;0.57;;;;;;;;;;5040231;28;20048;-82
2022/05/16 06:02:14;;;;;;;0.00;0.00;;;;;;;;;;5040395;28;20070;-81
2022/05/16 06:04:41;;;;;;;8.68;4.03;;;;;;;;;;5039902;28;20563;-82
2022/05/16 06:07:07;;;;;;;0.00;0.00;;;;;;;;;;5032676;28;20087;-81
2022/05/16 06:09:34;;;;;;;0.10;0.10;;;;;;;;;;5038850;28;20037;-82
2022/05/16 06:12:00;;;;;;;0.00;0.00;;;;;;;;;;5039114;28;20033;-82
2022/05/16 06:14:26;;;;;;;0.10;0.10;;;;;;;;;;5055924;28;20044;-82
2022/05/16 06:17:20;;;;;;;0.00;0.00;;;;;;;;;;5020290;28;20413;-83
2022/05/16 06:19:46;;;;;;;0.10;0.10;;;;;;;;;;5047108;28;20052;-83
2022/05/16 06:22:12;;;;;;;0.00;0.00;;;;;;;;;;5055530;28;20041;-84
2022/05/16 06:27:23;;;;;;;0.03;0.03;;;;;;;;;;5036038;28;20040;-84
2022/05/16 06:29:49;;;;;;;0.10;0.10;;;;;;;;;;5036494;28;20490;-83
2022/05/16 06:32:15;;;;;;;0.10;0.10;;;;;;;;;;5033822;28;20481;-84
2022/05/16 06:34:41;;;;;;;0.00;0.00;;;;;;;;;;5039625;28;20044;-84
2022/05/16 06:37:07;;;;;;;0.00;0.00;;;;;;;;;;5039550;28;20045;-83
2022/05/16 06:39:33;;;;;;;0.00;0.00;;;;;;;;;;5040201;28;20056;-87
2022/05/16 06:41:59;;;;;;;0.10;0.10;;;;;;;;;;5039705;28;20040;-86
2022/05/16 06:44:26;;;;;;;0.00;0.00;;;;;;;;;;5039837;28;20090;-87
2022/05/16 06:46:52;;;;;;;0.00;0.00;;;;;;;;;;5039468;28;20036;-87
2022/05/16 06:49:19;;;;;;;0.10;0.10;;;;;;;;;;5039826;28;20167;-87
2022/05/16 06:51:46;;;;;;;0.00;0.00;;;;;;;;;;5058099;28;20123;-87
2022/05/16 06:54:12;;;;;;;0.13;0.13;;;;;;;;;;5040905;28;20138;-88
2022/05/16 06:56:38;;;;;;;0.10;0.10;;;;;;;;;;5056234;28;20036;-84
2022/05/16 06:59:04;;;;;;;0.10;0.10;;;;;;;;;;5039248;28;20040;-84
2022/05/16 07:01:30;;;;;;;0.00;0.00;;;;;;;;;;5039257;28;20162;-85
2022/05/16 07:03:56;;;;;;;0.17;0.17;;;;;;;;;;5055701;28;20056;-85
2022/05/16 07:06:35;;;;;;;0.10;0.10;;;;;;;;;;5038710;28;20481;-85
2022/05/16 07:09:01;;;;;;;0.00;0.00;;;;;;;;;;5051962;28;20052;-87
2022/05/16 07:11:27;;;;;;;0.10;0.10;;;;;;;;;;5020410;28;20509;-88
2022/05/16 07:13:53;;;;;;;0.10;0.10;;;;;;;;;;5035510;28;20079;-87
2022/05/16 07:16:19;;;;;;;0.00;0.00;;;;;;;;;;5038717;28;20036;-84
2022/05/16 07:18:45;;;;;;;0.10;0.10;;;;;;;;;;5038883;28;20493;-88
2022/05/16 07:21:12;;;;;;;0.00;0.00;;;;;;;;;;5040234;28;20041;-88
2022/05/16 07:23:45;;;;;;;0.10;0.10;;;;;;;;;;5037645;28;20120;-86
2022/05/16 07:28:56;;;;;;;0.10;0.10;;;;;;;;;;5042941;28;20075;-84
2022/05/16 07:31:22;;;;;;;0.00;0.00;;;;;;;;;;5045644;28;20063;-84
2022/05/16 07:33:48;;;;;;;0.03;0.03;;;;;;;;;;5023619;28;20048;-86
2022/05/16 07:36:14;;;;;;;0.10;0.10;;;;;;;;;;5033137;28;20044;-86
2022/05/16 07:38:40;;;;;;;0.00;0.00;;;;;;;;;;5026344;28;20044;-86
2022/05/16 07:41:09;;;;;;;0.10;0.10;;;;;;;;;;5037198;28;20105;-88
2022/05/16 07:43:35;;;;;;;0.20;0.20;;;;;;;;;;5050331;28;20047;-87
2022/05/16 07:46:03;;;;;;;0.10;0.10;;;;;;;;;;5052824;28;20098;-84
2022/05/16 07:48:29;;;;;;;0.10;0.10;;;;;;;;;;5054649;28;20067;-85
2022/05/16 07:50:56;;;;;;;0.10;0.10;;;;;;;;;;5038847;28;20032;-86
2022/05/16 07:53:22;;;;;;;0.10;0.10;;;;;;;;;;5038717;28;20051;-84
2022/05/16 07:55:53;;;;;;;0.10;0.10;;;;;;;;;;5038510;28;20085;-83
2022/05/16 07:58:20;;;;;;;0.00;0.00;;;;;;;;;;5038320;28;20535;-83
2022/05/16 08:00:50;;;;;;;0.00;0.00;;;;;;;;;;5038399;28;20401;-83
2022/05/16 08:03:17;;;;;;;0.00;0.00;;;;;;;;;;5037502;28;20048;-85
2022/05/16 08:05:44;;;;;;;0.10;0.10;;;;;;;;;;5038325;28;20044;-85
2022/05/16 08:10:55;;;;;;;0.00;0.00;;;;;;;;;;5054903;28;20489;-85
2022/05/16 08:13:21;;;;;;;0.57;0.57;;;;;;;;;;5037925;28;20126;-83
2022/05/16 08:15:47;;;;;;;0.00;0.00;;;;;;;;;;5054296;28;20040;-85
2022/05/16 08:18:14;;;;;;;0.00;0.00;;;;;;;;;;5038432;28;20562;-85
2022/05/16 08:20:42;;;;;;;0.00;0.00;;;;;;;;;;5039435;28;20158;-87
2022/05/16 08:23:09;;;;;;;0.00;0.00;;;;;;;;;;5039734;28;20056;-86
2022/05/16 08:25:35;;;;;;;0.00;0.00;;;;;;;;;;5039906;28;20044;-88
2022/05/16 08:28:01;;;;;;;0.10;0.10;;;;;;;;;;5039540;28;20041;-85
2022/05/16 08:30:28;;;;;;;0.10;0.10;;;;;;;;;;5036521;28;20059;-84
2022/05/16 08:32:56;;;;;;;0.00;0.00;;;;;;;;;;5045840;28;20116;-86
2022/05/16 08:35:23;;;;;;;0.00;0.00;;;;;;;;;;5043804;28;20418;-87
2022/05/16 08:40:38;;;;;;;0.00;0.00;;;;;;;;;;5042398;28;20040;-85
2022/05/16 08:43:11;;;;;;;0.00;0.00;;;;;;;;;;5025739;28;20065;-88
2022/05/16 08:45:39;;;;;;;0.00;0.00;;;;;;;;;;5033278;28;20036;-85
2022/05/16 08:48:23;;;;;;;0.00;0.00;;;;;;;;;;5032114;28;20044;-84
2022/05/16 08:50:51;;;;;;;0.00;0.00;;;;;;;;;;5031988;28;20493;-83
2022/05/16 08:53:38;;;;;;;0.10;0.10;;;;;;;;;;5037211;28;20444;-84
2022/05/16 08:56:05;;;;;;;0.00;0.00;;;;;;;;;;5036621;28;20124;-84
2022/05/16 08:58:38;;;;;;;0.00;0.00;;;;;;;;;;5037411;28;20094;-83
2022/05/16 09:01:07;;;;;;;0.03;0.03;;;;;;;;;;5037478;28;20041;-83
2022/05/16 09:03:33;;;;;;;0.10;0.10;;;;;;;;;;5030076;28;20456;-84
2022/05/16 09:06:12;;;;;;;0.08;0.08;;;;;;;;;;5026798;28;20039;-83
2022/05/16 09:08:50;;;;;;;0.00;0.00;;;;;;;;;;5034707;28;20040;-82
2022/05/16 09:11:19;;;;;;;0.10;0.10;;;;;;;;;;5018050;28;20061;-86
2022/05/16 09:13:57;;;;;;;0.00;0.00;;;;;;;;;;5034445;28;20044;-85
2022/05/16 09:16:39;;;;;;;0.00;0.00;;;;;;;;;;5022939;28;20047;-85
2022/05/16 09:19:08;;;;;;;0.00;0.00;;;;;;;;;;5037737;28;20044;-86
2022/05/16 09:21:39;;;;;;;0.10;0.10;;;;;;;;;;5049268;28;20036;-86
2022/05/16 09:24:10;;;;;;;0.00;0.00;;;;;;;;;;5041138;28;20044;-85
2022/05/16 09:26:39;;;;;;;0.08;0.08;;;;;;;;;;5041064;28;20043;-84
2022/05/16 09:29:05;;;;;;;0.10;0.10;;;;;;;;;;5041454;28;20457;-86
2022/05/16 09:31:35;;;;;;;0.00;0.00;;;;;;;;;;5041143;28;20048;-83
2022/05/16 09:34:01;;;;;;;0.00;0.00;;;;;;;;;;5041695;28;20135;-86
2022/05/16 09:36:32;;;;;;;0.08;0.08;;;;;;;;;;5039489;28;20083;-86
2022/05/16 09:38:58;;;;;;;0.00;0.00;;;;;;;;;;5025407;28;20040;-87
2022/05/16 09:41:26;;;;;;;0.00;0.00;;;;;;;;;;5039451;28;20446;-86
2022/05/16 09:43:52;;;;;;;0.00;0.00;;;;;;;;;;5057406;28;20482;-85
2022/05/16 09:46:31;;;;;;;0.00;0.00;;;;;;;;;;5028008;28;20394;-83
2022/05/16 09:49:18;;;;;;;0.00;0.00;;;;;;;;;;5048573;28;20041;-84
2022/05/16 09:51:47;;;;;;;0.00;0.00;;;;;;;;;;5048859;28;20048;-86
2022/05/16 09:54:31;;;;;;;0.00;0.00;;;;;;;;;;5037835;28;20585;-84
2022/05/16 09:57:05;;;;;;;0.00;0.00;;;;;;;;;;5032838;28;20048;-86
2022/05/16 09:59:39;;;;;;;0.10;0.10;;;;;;;;;;5037065;28;20040;-82
2022/05/16 10:02:13;;;;;;;0.00;0.00;;;;;;;;;;5051031;28;20072;-86
2022/05/16 10:04:42;;;;;;;0.10;0.10;;;;;;;;;;5052292;28;20044;-86
2022/05/16 10:07:31;;;;;;;0.00;0.00;;;;;;;;;;5035733;28;20522;-87
2022/05/16 10:09:58;;;;;;;0.03;0.03;;;;;;;;;;5049990;28;20485;-84
2022/05/16 10:12:26;;;;;;;0.00;0.00;;;;;;;;;;5037980;28;20052;-87
2022/05/16 10:14:52;;;;;;;0.03;0.03;;;;;;;;;;5041928;28;20158;-87
2022/05/16 10:17:22;;;;;;;0.00;0.00;;;;;;;;;;5041115;28;20044;-88
2022/05/16 10:19:50;;;;;;;0.03;0.03;;;;;;;;;;5042609;28;20716;-86
2022/05/16 10:22:19;;;;;;;0.08;0.08;;;;;;;;;;5042363;28;20503;-88
2022/05/16 10:24:49;;;;;;;0.00;0.00;;;;;;;;;;5042184;28;20126;-87
2022/05/16 10:27:17;;;;;;;0.00;0.00;;;;;;;;;;5041468;28;20497;-88
2022/05/16 10:29:46;;;;;;;0.00;0.00;;;;;;;;;;5032427;28;20032;-89
2022/05/16 10:35:04;;;;;;;0.00;0.00;;;;;;;;;;5037258;28;20049;-88
2022/05/16 10:37:35;;;;;;;0.00;0.00;;;;;;;;;;5049343;28;20084;-89
2022/05/16 10:40:06;;;;;;;0.00;0.00;;;;;;;;;;5028499;28;20045;-88
2022/05/16 10:42:50;;;;;;;0.00;0.00;;;;;;;;;;5006839;28;20041;-88
2022/05/16 10:45:21;;;;;;;0.00;0.00;;;;;;;;;;5021836;28;20502;-89
2022/05/16 10:47:52;;;;;;;0.00;0.00;;;;;;;;;;5038821;28;20041;-88
2022/05/16 10:50:27;;;;;;;0.00;0.00;;;;;;;;;;5038389;28;20060;-87
2022/05/16 10:52:59;;;;;;;0.00;0.00;;;;;;;;;;5041546;28;20045;-87
2022/05/16 10:55:31;;;;;;;0.00;0.00;;;;;;;;;;5052999;28;20097;-87
2022/05/16 10:58:00;;;;;;;;;;;;;;;;;;5049876;28;20455;-88
2022/05/16 11:00:44;;;;;;;0.00;0.00;;;;;;;;;;5028043;28;19916;-87
2022/05/16 11:03:16;;;;;;;0.00;0.00;;;;;;;;;;5032581;28;20077;-87
2022/05/16 11:06:01;;;;;;;0.00;0.00;;;;;;;;;;5039302;28;20045;-89
2022/05/16 11:08:35;;;;;;;0.10;0.10;;;;;;;;;;5056918;28;20036;-89
2022/05/16 11:11:04;;;;;;;0.10;0.10;;;;;;;;;;5033556;28;20560;-90
2022/05/16 11:13:41;;;;;;;0.10;0.10;;;;;;;;;;5038952;28;20032;-84
2022/05/16 11:16:29;;;;;;;0.00;0.00;;;;;;;;;;5037241;28;20047;-87
2022/05/16 11:19:05;;;;;;;0.00;0.00;;;;;;;;;;5029476;28;20069;-87
2022/05/16 11:21:46;;;;;;;0.00;0.00;;;;;;;;;;5035918;28;20432;-85
2022/05/16 11:24:20;;;;;;;0.00;0.00;;;;;;;;;;5036138;28;20038;-86
2022/05/16 11:27:07;;;;;;;0.10;0.10;;;;;;;;;;5036473;28;20470;-85
2022/05/16 11:29:39;;;;;;;0.08;0.08;;;;;;;;;;5034521;28;20052;-87
2022/05/16 11:32:16;;;;;;;0.00;0.00;;;;;;;;;;5033487;28;20120;-85
2022/05/16 11:35:01;;;;;;;0.85;0.85;;;;;;;;;;5050778;28;20045;-85
2022/05/16 11:37:32;;;;;;;0.00;0.00;;;;;;;;;;5038600;28;20489;-84
2022/05/16 11:40:05;;;;;;;0.00;0.00;;;;;;;;;;5065239;28;20128;-87
2022/05/16 11:42:33;;;;;;;0.00;0.00;;;;;;;;;;5035548;28;20437;-85
2022/05/16 11:45:08;;;;;;;0.00;0.00;;;;;;;;;;5039016;28;20044;-86
2022/05/16 11:47:46;;;;;;;0.03;0.03;;;;;;;;;;5032171;28;20041;-85
2022/05/16 11:50:34;;;;;;;0.00;0.00;;;;;;;;;;5042006;28;20115;-86
2022/05/16 11:53:21;;;;;;;0.00;0.00;;;;;;;;;;5039278;28;20037;-84
2022/05/16 12:01:37;;;;;;;0.00;0.00;;;;;;;;;;5047640;28;19986;-83
2022/05/16 12:04:06;;;;;;;0.00;0.00;;;;;;;;;;5029931;28;20454;-86
2022/05/16 12:06:38;;;;;;;0.00;0.00;;;;;;;;;;5036001;28;20076;-85
2022/05/16 12:09:15;;;;;;;0.10;0.10;;;;;;;;;;5025968;28;20044;-84
2022/05/16 12:11:56;;;;;;;0.10;0.10;;;;;;;;;;5026289;28;20040;-84
2022/05/16 12:14:26;;;;;;;0.08;0.08;;;;;;;;;;5055756;28;20080;-83
2022/05/16 12:16:57;;;;;;;0.00;0.00;;;;;;;;;;5035766;28;20052;-82
2022/05/16 12:19:29;;;;;;;0.00;0.00;;;;;;;;;;5035765;28;20508;-84
2022/05/16 12:22:06;;;;;;;0.00;0.00;;;;;;;;;;5038040;28;20051;-83
2022/05/16 12:24:36;;;;;;;0.00;0.00;;;;;;;;;;5038450;28;20045;-85
2022/05/16 12:27:05;;;;;;;0.00;0.00;;;;;;;;;;5039602;28;20033;-86
2022/05/16 12:29:38;;;;;;;0.00;0.00;;;;;;;;;;5039614;28;20068;-87
2022/05/16 12:32:04;;;;;;;0.00;0.00;;;;;;;;;;5056114;28;20040;-88
2022/05/16 12:34:30;;;;;;;0.00;0.00;;;;;;;;;;5039728;28;20036;-87
2022/05/16 12:36:57;;;;;;;0.00;0.00;;;;;;;;;;5039188;28;20055;-85
2022/05/16 12:39:31;;;;;;;0.00;0.00;;;;;;;;;;5038898;28;20040;-84
2022/05/16 12:42:07;;;;;;;0.08;0.08;;;;;;;;;;5038863;28;20067;-84
2022/05/16 12:44:41;;;;;;;0.10;0.10;;;;;;;;;;5038886;28;20045;-86
2022/05/16 12:47:26;;;;;;;0.00;0.00;;;;;;;;;;5037429;28;20032;-84
2022/05/16 12:49:53;;;;;;;;;;;;;;;;;;5039980;28;20151;-83
2022/05/16 12:55:45;;;;;;;0.00;0.00;;;;;;;;;;5077092;28;20423;-84
2022/05/16 12:58:13;;;;;;;0.00;0.00;;;;;;;;;;5059267;28;20043;-85
2022/05/16 13:00:46;;;;;;;0.10;0.10;;;;;;;;;;5043639;28;20063;-87
2022/05/16 13:03:12;;;;;;;0.20;0.20;;;;;;;;;;5043122;28;20079;-84
2022/05/16 13:05:42;;;;;;;0.10;0.10;;;;;;;;;;5043331;28;20032;-85
2022/05/16 13:08:32;;;;;;;0.00;0.00;;;;;;;;;;5043564;28;20090;-87
2022/05/16 13:11:01;;;;;;;0.00;0.00;;;;;;;;;;5044077;28;20036;-85
2022/05/16 13:13:56;;;;;;;0.10;0.10;;;;;;;;;;5035207;28;20061;-83
2022/05/16 13:16:22;;;;;;;0.00;0.00;;;;;;;;;;4990650;28;20118;-82
2022/05/16 13:18:56;;;;;;;0.00;0.00;;;;;;;;;;5035068;28;20490;-83
2022/05/16 13:21:23;;;;;;;0.00;0.00;;;;;;;;;;5036428;28;20036;-83
2022/05/16 13:23:50;;;;;;;0.00;0.00;;;;;;;;;;5036295;28;20506;-84
2022/05/16 13:31:49;;;;;;;0.00;0.00;;;;;;;;;;5048623;28;20033;-82
2022/05/16 13:34:26;;;;;;;0.00;0.00;;;;;;;;;;5021957;28;20413;-82
2022/05/16 13:36:53;;;;;;;0.00;0.00;;;;;;;;;;5035647;28;20036;-82
2022/05/16 13:39:19;;;;;;;0.00;0.00;;;;;;;;;;5038211;28;20059;-83
2022/05/16 13:41:54;;;;;;;0.00;0.00;;;;;;;;;;5056285;28;20541;-82
2022/05/16 13:44:20;;;;;;;0.05;0.05;;;;;;;;;;5040322;28;20547;-84
2022/05/16 13:46:46;;;;;;;0.00;0.00;;;;;;;;;;5040388;28;20079;-82
2022/05/16 13:49:13;;;;;;;0.00;0.00;;;;;;;;;;5040285;28;20127;-82
2022/05/16 13:51:45;;;;;;;0.00;0.00;;;;;;;;;;5057578;28;20064;-82
2022/05/16 13:54:16;;;;;;;0.00;0.00;;;;;;;;;;5039999;28;20047;-83
2022/05/16 13:56:46;;;;;;;0.00;0.00;;;;;;;;;;5056579;28;20044;-83
2022/05/16 13:59:12;;;;;;;0.00;0.00;;;;;;;;;;5056584;28;20036;-83
2022/05/16 14:01:39;;;;;;;0.10;0.10;;;;;;;;;;5039501;28;20050;-84
2022/05/16 14:04:07;;;;;;;0.00;0.00;;;;;;;;;;5039850;28;20075;-83
2022/05/16 14:06:38;;;;;;;0.05;0.05;;;;;;;;;;5035822;28;20040;-85
2022/05/16 14:09:13;;;;;;;0.00;0.00;;;;;;;;;;5048375;28;20044;-83
2022/05/16 14:11:39;;;;;;;0.10;0.10;;;;;;;;;;5029429;28;20445;-84
2022/05/16 14:14:06;;;;;;;0.00;0.00;;;;;;;;;;5047731;28;20047;-83
2022/05/16 14:16:33;;;;;;;0.00;0.00;;;;;;;;;;5027370;28;20413;-83
2022/05/16 14:19:05;;;;;;;0.00;0.00;;;;;;;;;;5030496;28;20063;-84
2022/05/16 14:21:46;;;;;;;0.00;0.00;;;;;;;;;;5029328;28;20041;-84
2022/05/16 14:24:15;;;;;;;0.10;0.10;;;;;;;;;;5031004;28;20091;-84
2022/05/16 14:26:41;;;;;;;0.00;0.00;;;;;;;;;;5027001;28;20327;-83
2022/05/16 14:29:15;;;;;;;0.00;0.00;;;;;;;;;;5032811;28;20541;-84
2022/05/16 14:31:44;;;;;;;0.10;0.10;;;;;;;;;;5052074;28;20046;-84
2022/05/16 14:34:27;;;;;;;0.08;0.08;;;;;;;;;;5039931;28;20033;-84
2022/05/16 14:36:56;;;;;;;0.10;0.10;;;;;;;;;;5039482;28;20071;-83
2022/05/16 14:39:27;;;;;;;0.00;0.00;;;;;;;;;;5039908;28;20044;-81
2022/05/16 14:42:25;;;;;;;0.00;0.00;;;;;;;;;;5039999;28;20044;-82
2022/05/16 14:45:02;;;;;;;0.00;0.00;;;;;;;;;;4986136;28;20064;-81
2022/05/16 14:47:41;;;;;;;0.10;0.10;;;;;;;;;;5039394;28;20040;-83
2022/05/16 14:50:08;;;;;;;0.10;0.10;;;;;;;;;;5039731;28;20132;-83
2022/05/16 14:52:35;;;;;;;0.05;0.05;;;;;;;;;;5020760;28;20032;-85
2022/05/16 14:55:08;;;;;;;0.00;0.00;;;;;;;;;;5032337;28;20080;-85
2022/05/16 14:57:39;;;;;;;0.00;0.00;;;;;;;;;;5040406;28;20043;-86
2022/05/16 15:00:07;;;;;;;0.10;0.10;;;;;;;;;;5040302;28;20044;-86
2022/05/16 15:05:17;;;;;;;0.00;0.00;;;;;;;;;;5056562;28;20074;-85
2022/05/16 15:07:44;;;;;;;0.20;0.20;;;;;;;;;;5040090;28;20048;-85
2022/05/16 15:10:12;;;;;;;0.00;0.00;;;;;;;;;;5040229;28;20106;-84
2022/05/16 15:12:38;;;;;;;0.08;0.08;;;;;;;;;;5039853;28;20098;-85
2022/05/16 15:15:05;;;;;;;0.30;0.30;;;;;;;;;;5039336;28;20040;-85
2022/05/16 15:17:31;;;;;;;0.00;0.00;;;;;;;;;;5039608;28;20048;-84
2022/05/16 15:19:57;;;;;;;0.00;0.00;;;;;;;;;;5039570;28;20046;-84
2022/05/16 15:22:23;;;;;;;0.00;0.00;;;;;;;;;;5056456;28;20135;-84
2022/05/16 15:24:54;;;;;;;0.10;0.10;;;;;;;;;;5039777;28;20037;-84
2022/05/16 15:27:21;;;;;;;0.10;0.10;;;;;;;;;;5039639;28;20086;-85
2022/05/16 15:29:47;;;;;;;0.05;0.05;;;;;;;;;;5039459;28;20036;-84
2022/05/16 15:32:14;;;;;;;0.00;0.00;;;;;;;;;;5039632;28;20171;-83
2022/05/16 15:34:40;;;;;;;0.10;0.10;;;;;;;;;;5039650;28;20470;-84
2022/05/16 15:37:12;;;;;;;0.00;0.00;;;;;;;;;;5035943;28;20037;-84
2022/05/16 15:39:38;;;;;;;0.00;0.00;;;;;;;;;;5033646;28;20048;-84
2022/05/16 15:42:05;;;;;;;0.00;0.00;;;;;;;;;;5049213;28;20036;-85
2022/05/16 15:44:33;;;;;;;0.00;0.00;;;;;;;;;;5039391;28;20039;-86